createdAt,value
2019-04-05T05:00:25.381Z,33.57
2019-04-05T05:02:59.698Z,33.70
2019-04-05T05:05:33.808Z,33.87
2019-04-05T05:08:15.995Z,35.23
2019-04-05T05:10:50.742Z,35.10
2019-04-05T05:13:43.783Z,38.67
2019-04-05T05:16:17.951Z,38.70
2019-04-05T05:18:52.115Z,37.97
2019-04-05T05:21:26.494Z,38.63
2019-04-05T05:24:00.649Z,41.27
2019-04-05T05:26:36.319Z,38.80
2019-04-05T05:29:10.768Z,40.33
2019-04-05T05:31:44.649Z,38.57
2019-04-05T05:34:19.174Z,38.90
2019-04-05T05:36:52.955Z,35.70
2019-04-05T05:39:27.104Z,38.23
2019-04-05T05:42:00.786Z,38.83
2019-04-05T05:44:34.523Z,39.50
2019-04-05T05:47:08.145Z,36.67
2019-04-05T05:49:42.120Z,34.37
2019-04-05T05:52:17.026Z,36.80
2019-04-05T05:54:50.969Z,33.47
2019-04-05T05:57:25.010Z,36.60
2019-04-05T06:00:00.481Z,36.70
2019-04-05T06:02:36.518Z,35.17
2019-04-05T06:05:10.131Z,40.03
2019-04-05T06:07:43.839Z,35.43
2019-04-05T06:10:17.603Z,38.10
2019-04-05T06:12:51.277Z,37.60
2019-04-05T06:15:24.859Z,36.07
2019-04-05T06:18:04.522Z,37.30
2019-04-05T06:20:33.840Z,36.90
2019-04-05T06:23:07.482Z,37.27
2019-04-05T06:25:41.103Z,37.97
2019-04-05T06:28:14.723Z,39.13
2019-04-05T06:30:48.665Z,38.33
2019-04-05T06:33:31.352Z,40.77
2019-04-05T06:35:57.609Z,40.47
2019-04-05T06:38:31.181Z,38.80
2019-04-05T06:41:04.742Z,38.33
2019-04-05T06:43:38.736Z,38.10
2019-04-05T06:46:12.267Z,41.53
2019-04-05T06:48:45.945Z,42.80
2019-04-05T06:51:19.934Z,39.93
2019-04-05T06:53:53.527Z,40.27
2019-04-05T06:56:27.091Z,40.27
2019-04-05T06:59:00.712Z,38.90
2019-04-05T07:01:34.415Z,41.33
2019-04-05T07:04:08.458Z,39.17
2019-04-05T07:06:42.476Z,40.30
2019-04-05T07:09:16.078Z,40.87
2019-04-05T07:11:49.642Z,40.00
2019-04-05T07:14:23.248Z,40.07
2019-04-05T07:16:56.811Z,40.93
2019-04-05T07:19:30.457Z,41.00
2019-04-05T07:22:03.984Z,41.47
2019-04-05T07:24:37.562Z,42.77
2019-04-05T07:27:11.130Z,40.80
2019-04-05T07:29:44.739Z,41.20
2019-04-05T07:32:18.684Z,38.60
2019-04-05T07:34:52.282Z,40.50
2019-04-05T07:37:25.848Z,42.50
2019-04-05T07:40:00.107Z,39.93
2019-04-05T07:42:34.070Z,41.50
2019-04-05T07:45:08.667Z,41.77
2019-04-05T07:47:42.274Z,41.27
2019-04-05T07:50:16.478Z,42.03
2019-04-05T07:52:50.021Z,43.57
2019-04-05T07:55:23.609Z,40.20
2019-04-05T14:25:26.094Z,39.20
2019-04-05T14:28:00.180Z,40.90
2019-04-05T14:30:34.140Z,41.20
2019-04-05T20:54:34.353Z,53.70
2019-04-05T20:57:08.743Z,53.40
2019-04-05T20:59:42.936Z,55.23
2019-04-05T21:02:16.939Z,53.53
2019-04-05T21:04:50.471Z,55.30
2019-04-05T21:07:24.439Z,52.73
2019-04-05T21:09:58.027Z,53.97
2019-04-05T21:12:32.022Z,52.43
2019-04-05T21:15:06.107Z,52.73
2019-04-05T21:17:40.166Z,50.80
2019-04-05T21:20:14.228Z,48.33
2019-04-05T21:22:47.866Z,51.60
2019-04-05T21:25:21.823Z,50.13
2019-04-05T21:27:55.442Z,49.50
2019-04-05T21:30:29.091Z,46.37
2019-04-05T21:33:02.945Z,54.13
2019-04-05T21:35:36.583Z,47.20
2019-04-05T21:38:10.310Z,51.70
2019-04-05T21:40:43.880Z,50.30
2019-04-05T21:43:17.831Z,55.13
2019-04-05T21:45:52.279Z,51.67
2019-04-05T21:48:25.917Z,47.00
2019-04-05T21:50:59.533Z,51.80
2019-04-05T21:53:33.177Z,50.20
2019-04-05T21:56:06.906Z,46.57
2019-04-05T21:58:40.632Z,48.20
2019-04-05T22:01:14.267Z,44.20
2019-04-05T22:03:47.996Z,46.00
2019-04-05T22:06:21.676Z,46.87
2019-04-05T22:08:55.726Z,47.50
2019-04-05T22:11:29.450Z,48.53
2019-04-05T22:14:03.260Z,49.10
2019-04-05T22:16:36.957Z,46.57
2019-04-05T22:19:10.664Z,47.60
2019-04-05T22:21:44.382Z,49.20
2019-04-05T22:24:18.452Z,46.63
2019-04-05T22:26:52.380Z,48.90
2019-04-05T22:29:26.392Z,47.27
2019-04-05T22:32:00.095Z,44.80
2019-04-05T22:34:33.833Z,45.20
2019-04-05T22:37:07.536Z,44.17
2019-04-05T22:39:41.242Z,43.63
2019-04-05T22:42:14.950Z,45.20
2019-04-05T22:44:48.674Z,44.57
2019-04-05T22:47:22.934Z,44.10
2019-04-05T22:49:57.012Z,46.33
2019-04-05T22:52:30.658Z,40.70
2019-04-05T22:55:10.995Z,35.33
2019-04-05T22:57:40.135Z,24.13
2019-04-05T23:00:14.025Z,21.80
2019-04-05T23:02:47.698Z,23.70
2019-04-05T23:05:21.459Z,24.87
2019-04-05T23:07:55.299Z,20.47
2019-04-05T23:10:29.253Z,27.90
2019-04-05T23:13:02.917Z,35.07
2019-04-05T23:15:36.689Z,40.87
2019-04-05T23:18:10.369Z,46.20
2019-04-05T23:20:44.069Z,45.33
2019-04-05T23:23:18.191Z,37.07
2019-04-05T23:25:51.885Z,35.97
2019-04-05T23:28:25.558Z,39.47
2019-04-05T23:30:59.312Z,33.43
2019-04-05T23:33:32.928Z,38.77
2019-04-05T23:36:06.652Z,33.03
2019-04-05T23:38:40.289Z,33.27
2019-04-05T23:41:13.961Z,39.10
2019-04-05T23:43:48.519Z,31.50
2019-04-05T23:46:22.240Z,32.73
2019-04-05T23:48:56.244Z,34.73
2019-04-05T23:51:29.918Z,40.93
2019-04-05T23:54:03.648Z,37.50
2019-04-05T23:56:37.349Z,40.23
2019-04-05T23:59:11.033Z,39.57
